createdAt,value
2022-09-24T00:00:24.594Z,21.67
2022-09-24T00:02:57.659Z,21.40
2022-09-24T00:06:01.468Z,22.40
2022-09-24T00:08:55.954Z,21.95
2022-09-24T00:11:24.848Z,20.08
2022-09-24T00:13:54.778Z,21.25
2022-09-24T00:16:26.000Z,20.00
2022-09-24T00:18:54.829Z,19.42
2022-09-24T00:21:48.379Z,22.88
2022-09-24T00:24:38.147Z,19.33
2022-09-24T00:27:06.670Z,19.38
2022-09-24T00:29:36.618Z,20.58
2022-09-24T00:32:05.089Z,19.60
2022-09-24T00:34:37.214Z,23.15
2022-09-24T00:37:05.065Z,20.38
2022-09-24T00:39:32.911Z,18.33
2022-09-24T00:41:59.896Z,24.48
2022-09-24T00:45:04.588Z,19.73
2022-09-24T00:47:39.151Z,21.13
2022-09-24T00:50:31.570Z,19.38
2022-09-24T00:53:33.416Z,21.27
2022-09-24T00:56:03.721Z,23.33
2022-09-24T00:58:31.894Z,26.75
2022-09-24T01:01:05.917Z,26.75
2022-09-24T01:03:40.985Z,25.35
2022-09-24T01:06:09.149Z,28.27
2022-09-24T01:08:36.045Z,28.77
2022-09-24T01:11:06.690Z,28.52
2022-09-24T01:14:11.172Z,33.72
2022-09-24T01:16:45.694Z,34.00
2022-09-24T01:19:41.873Z,29.45
2022-09-24T01:22:15.868Z,32.95
2022-09-24T01:25:02.408Z,34.17
2022-09-24T01:27:57.664Z,30.13
2022-09-24T01:30:28.132Z,28.77
2022-09-24T01:33:00.137Z,28.85
2022-09-24T01:35:35.005Z,32.13
2022-09-24T01:38:06.420Z,32.25
2022-09-24T01:40:36.691Z,30.30
2022-09-24T01:43:05.495Z,30.83
2022-09-24T01:45:37.236Z,31.27
2022-09-24T01:48:06.678Z,31.73
2022-09-24T01:50:58.385Z,29.27
2022-09-24T01:53:39.790Z,35.65
2022-09-24T01:56:24.007Z,30.95
2022-09-24T01:59:09.503Z,30.90
2022-09-24T02:01:45.332Z,31.02
2022-09-24T02:04:16.858Z,30.80
2022-09-24T02:07:00.208Z,29.70
2022-09-24T02:09:36.800Z,31.67
2022-09-24T02:12:22.875Z,29.98
2022-09-24T02:14:56.770Z,30.75
2022-09-24T02:17:27.757Z,28.48
2022-09-24T02:19:58.398Z,28.70
2022-09-24T02:22:25.948Z,30.13
2022-09-24T02:24:57.223Z,26.95
2022-09-24T02:27:30.860Z,27.23
2022-09-24T02:30:01.019Z,25.02
2022-09-24T02:32:32.391Z,29.65
2022-09-24T02:35:06.274Z,28.42
2022-09-24T02:37:39.423Z,26.15
2022-09-24T02:40:09.034Z,26.25
2022-09-24T02:42:36.546Z,28.17
2022-09-24T02:45:05.597Z,26.90
2022-09-24T02:47:33.143Z,30.73
2022-09-24T02:50:01.146Z,30.13
2022-09-24T02:52:28.300Z,29.60
2022-09-24T02:54:55.181Z,31.45
2022-09-24T02:57:23.057Z,32.22
2022-09-24T02:59:53.076Z,28.73
2022-09-24T03:02:21.374Z,26.67
2022-09-24T03:04:52.268Z,30.38
2022-09-24T03:07:21.975Z,30.88
2022-09-24T03:09:50.028Z,31.33
2022-09-24T03:12:16.928Z,34.47
2022-09-24T03:14:43.845Z,33.53
2022-09-24T03:17:11.770Z,33.55
2022-09-24T03:19:38.673Z,36.42
2022-09-24T03:22:05.739Z,34.42
2022-09-24T03:24:57.739Z,31.60
2022-09-24T03:27:27.777Z,34.60
2022-09-24T03:30:14.304Z,29.70
2022-09-24T03:32:42.191Z,34.35
2022-09-24T03:35:11.946Z,34.05
2022-09-24T03:37:45.869Z,33.92
2022-09-24T03:40:17.841Z,36.33
2022-09-24T03:42:45.772Z,35.70
2022-09-24T03:45:13.621Z,37.95
2022-09-24T03:47:42.639Z,35.22
2022-09-24T03:50:11.638Z,31.13
2022-09-24T03:52:43.903Z,36.55
2022-09-24T03:55:10.656Z,38.10
2022-09-24T03:57:38.539Z,39.47
2022-09-24T04:00:06.840Z,36.97
2022-09-24T04:02:36.849Z,35.13
2022-09-24T04:05:03.952Z,39.58
2022-09-24T04:07:32.936Z,36.72
2022-09-24T04:10:01.007Z,39.67
2022-09-24T04:12:30.245Z,39.80
2022-09-24T04:14:57.344Z,35.92
2022-09-24T04:17:31.277Z,40.45
2022-09-24T04:19:59.325Z,34.83
2022-09-24T04:22:29.188Z,41.45
2022-09-24T04:24:59.603Z,39.78
2022-09-24T04:27:36.662Z,36.75
2022-09-24T04:30:05.027Z,38.17
2022-09-24T04:32:32.909Z,37.53
2022-09-24T04:35:05.369Z,35.22
2022-09-24T04:37:36.388Z,40.33
2022-09-24T04:40:06.042Z,36.40
2022-09-24T04:42:32.986Z,43.47
2022-09-24T04:45:00.017Z,38.80
2022-09-24T04:47:29.986Z,46.03
2022-09-24T04:50:02.681Z,41.05
2022-09-24T04:52:33.500Z,40.22
2022-09-24T04:55:01.127Z,39.35
2022-09-24T04:57:34.952Z,40.50
2022-09-24T05:00:04.139Z,40.92
2022-09-24T05:02:31.582Z,37.22
2022-09-24T05:04:58.717Z,40.70
2022-09-24T05:07:26.416Z,38.28
2022-09-24T05:09:53.542Z,39.33
2022-09-24T05:12:23.574Z,38.03
2022-09-24T05:14:51.459Z,38.42
2022-09-24T05:17:21.528Z,39.15
2022-09-24T05:19:53.637Z,38.50
2022-09-24T05:22:21.816Z,39.42
2022-09-24T05:26:00.288Z,37.90
2022-09-24T05:28:28.612Z,41.20
2022-09-24T05:31:02.518Z,39.60
2022-09-24T05:33:33.165Z,39.38
2022-09-24T05:36:01.398Z,37.70
2022-09-24T05:38:30.091Z,38.20
2022-09-24T05:41:01.232Z,39.97
2022-09-24T05:43:31.839Z,36.05
2022-09-24T05:45:59.009Z,38.53
2022-09-24T05:48:28.259Z,40.10
2022-09-24T05:50:56.485Z,39.60
2022-09-24T05:53:24.778Z,36.80
2022-09-24T05:55:51.748Z,40.33
2022-09-24T05:58:20.433Z,42.13
2022-09-24T06:00:48.626Z,39.95
2022-09-24T06:03:20.036Z,40.97
2022-09-24T06:05:50.262Z,41.33
2022-09-24T06:08:19.648Z,43.30
2022-09-24T06:10:48.698Z,48.88
2022-09-24T06:13:18.727Z,42.55
2022-09-24T06:15:48.837Z,40.28
2022-09-24T06:18:17.013Z,41.00
2022-09-24T06:20:47.160Z,42.97
2022-09-24T06:23:15.254Z,39.55
2022-09-24T06:25:43.350Z,41.00
2022-09-24T06:28:10.482Z,39.00
2022-09-24T06:30:41.361Z,38.95
2022-09-24T06:33:12.790Z,36.75
2022-09-24T06:35:44.531Z,42.47
2022-09-24T06:38:16.945Z,38.33
2022-09-24T06:40:51.472Z,38.47
2022-09-24T06:43:19.514Z,36.65
2022-09-24T06:45:46.532Z,35.40
2022-09-24T06:48:41.433Z,48.28
2022-09-24T06:51:08.731Z,33.60
2022-09-24T06:53:36.753Z,38.22
2022-09-24T06:56:04.333Z,41.97
2022-09-24T06:58:31.414Z,35.55
2022-09-24T07:01:01.672Z,38.50
2022-09-24T07:03:34.147Z,38.08
2022-09-24T07:06:05.193Z,35.10
2022-09-24T07:08:32.581Z,39.40
2022-09-24T07:11:02.714Z,34.50
2022-09-24T07:13:32.833Z,34.50
2022-09-24T07:16:05.187Z,36.65
2022-09-24T07:18:32.130Z,33.45
2022-09-24T07:21:00.073Z,39.53
2022-09-24T07:23:28.119Z,34.45
2022-09-24T07:26:48.195Z,40.17
2022-09-24T07:29:16.265Z,40.05
2022-09-24T07:31:43.395Z,40.42
2022-09-24T07:34:14.249Z,39.38
2022-09-24T07:36:44.222Z,37.40
2022-09-24T07:39:11.161Z,39.33
2022-09-24T07:41:42.177Z,36.97
2022-09-24T07:44:10.503Z,40.25
2022-09-24T07:46:38.526Z,39.20
2022-09-24T07:49:05.959Z,35.47
2022-09-24T07:51:32.931Z,35.75
2022-09-24T07:54:01.243Z,36.60
2022-09-24T07:56:32.006Z,34.65
2022-09-24T07:58:59.985Z,36.28
2022-09-24T08:01:28.069Z,39.05
2022-09-24T08:03:56.003Z,32.63
2022-09-24T08:06:23.294Z,33.92
2022-09-24T08:08:53.075Z,35.13
2022-09-24T08:11:21.436Z,32.47
2022-09-24T08:13:49.378Z,31.55
2022-09-24T08:16:16.662Z,33.67
2022-09-24T08:18:44.108Z,32.15
2022-09-24T08:21:13.298Z,32.92
2022-09-24T08:23:43.691Z,32.90
2022-09-24T08:26:12.668Z,34.08
2022-09-24T08:28:42.139Z,30.67
2022-09-24T08:31:12.878Z,31.25
2022-09-24T08:33:40.209Z,29.27
2022-09-24T08:36:10.831Z,30.92
2022-09-24T08:38:38.936Z,29.83
2022-09-24T08:41:12.238Z,33.75
2022-09-24T08:44:04.035Z,32.40
2022-09-24T08:47:06.380Z,29.85
2022-09-24T08:49:49.694Z,31.43
2022-09-24T08:52:44.005Z,32.97
2022-09-24T08:55:33.978Z,36.53
2022-09-24T08:58:08.898Z,34.60
2022-09-24T09:01:04.641Z,32.90
2022-09-24T09:03:49.403Z,30.08
2022-09-24T09:06:36.162Z,29.38
2022-09-24T09:09:20.245Z,27.13
2022-09-24T09:11:52.060Z,33.25
2022-09-24T09:14:58.756Z,31.88
2022-09-24T09:17:56.803Z,31.35
2022-09-24T09:20:45.881Z,32.95
2022-09-24T09:23:17.117Z,35.38
2022-09-24T09:26:03.080Z,32.60
2022-09-24T09:28:30.181Z,34.15
2022-09-24T09:30:58.936Z,32.83
2022-09-24T09:33:42.356Z,34.72
2022-09-24T09:36:31.973Z,33.90
2022-09-24T09:39:37.577Z,36.28
2022-09-24T09:42:26.044Z,36.22
2022-09-24T09:44:54.496Z,30.83
2022-09-24T09:47:40.859Z,31.70
2022-09-24T09:50:35.932Z,34.42
2022-09-24T09:53:05.017Z,39.08
2022-09-24T09:55:37.348Z,30.13
2022-09-24T09:58:20.137Z,32.75
2022-09-24T10:03:33.781Z,32.05
2022-09-24T10:06:03.383Z,29.33
2022-09-24T10:08:30.647Z,29.48
2022-09-24T10:11:03.440Z,28.63
2022-09-24T10:13:33.935Z,24.98
2022-09-24T10:16:04.877Z,30.27
2022-09-24T10:18:39.030Z,30.25
2022-09-24T10:21:12.155Z,30.00
2022-09-24T10:23:44.384Z,31.02
2022-09-24T10:26:13.550Z,29.25
2022-09-24T10:29:16.574Z,29.70
2022-09-24T10:31:49.250Z,31.65
2022-09-24T10:34:26.842Z,31.50
2022-09-24T10:37:13.662Z,29.65
2022-09-24T10:39:42.915Z,31.75
2022-09-24T10:42:32.483Z,25.17
2022-09-24T10:45:02.713Z,25.33
2022-09-24T10:48:05.062Z,24.15
2022-09-24T10:50:45.982Z,60.17
2022-09-24T10:53:42.169Z,22.85
2022-09-24T10:56:43.605Z,21.15
2022-09-24T10:59:21.301Z,21.92
2022-09-24T11:01:54.671Z,21.27
2022-09-24T11:04:39.855Z,21.85
2022-09-24T11:07:49.108Z,27.52
2022-09-24T11:10:27.995Z,24.35
2022-09-24T11:13:17.254Z,28.42
2022-09-24T11:16:02.803Z,21.98
2022-09-24T11:18:36.642Z,21.02
2022-09-24T11:21:12.289Z,26.20
2022-09-24T11:23:56.354Z,23.20
2022-09-24T11:26:33.166Z,24.58
2022-09-24T11:29:37.133Z,25.88
2022-09-24T11:32:20.186Z,26.35
2022-09-24T11:34:59.310Z,21.95
2022-09-24T11:38:03.734Z,23.13
2022-09-24T11:41:03.558Z,25.23
2022-09-24T11:44:11.367Z,23.55
2022-09-24T11:47:01.504Z,25.45
2022-09-24T11:49:42.541Z,27.35
2022-09-24T11:52:15.320Z,27.48
2022-09-24T11:55:23.723Z,30.08
2022-09-24T11:58:04.820Z,30.02
2022-09-24T12:00:40.584Z,29.58
2022-09-24T12:03:26.289Z,31.05
2022-09-24T12:06:15.119Z,30.30
2022-09-24T12:08:45.937Z,33.88
2022-09-24T12:11:36.768Z,32.55
2022-09-24T12:14:26.683Z,34.70
2022-09-24T12:17:02.811Z,32.80
2022-09-24T12:19:42.050Z,33.83
2022-09-24T12:22:12.064Z,34.75
2022-09-24T12:24:57.035Z,32.53
2022-09-24T12:27:33.391Z,34.97
2022-09-24T12:30:57.441Z,32.60
2022-09-24T12:33:43.355Z,27.30
2022-09-24T12:36:21.649Z,34.42
2022-09-24T12:38:54.259Z,33.00
2022-09-24T12:41:25.007Z,29.98
2022-09-24T12:44:11.097Z,30.65
2022-09-24T12:46:56.799Z,28.17
2022-09-24T12:49:26.858Z,28.83
2022-09-24T12:52:00.705Z,25.75
2022-09-24T12:54:38.578Z,29.15
2022-09-24T12:57:21.350Z,21.42
2022-09-24T13:00:05.873Z,23.40
2022-09-24T13:02:47.693Z,21.02
2022-09-24T13:05:23.720Z,19.73
2022-09-24T13:07:58.329Z,18.98
2022-09-24T13:10:30.292Z,17.02
2022-09-24T13:13:00.359Z,22.92
2022-09-24T13:15:35.153Z,22.08
2022-09-24T13:18:07.009Z,18.63
2022-09-24T13:20:35.072Z,22.50
2022-09-24T13:23:31.707Z,23.83
2022-09-24T13:26:05.159Z,21.00
2022-09-24T13:28:38.747Z,23.05
2022-09-24T13:31:13.331Z,22.92
2022-09-24T13:33:45.497Z,24.55
2022-09-24T13:36:40.528Z,21.92
2022-09-24T13:39:33.690Z,22.75
2022-09-24T13:42:43.338Z,23.55
2022-09-24T13:45:17.035Z,26.75
2022-09-24T13:47:53.400Z,24.65
2022-09-24T13:50:28.942Z,25.42
2022-09-24T13:53:02.371Z,24.85
2022-09-24T13:55:45.061Z,26.85
2022-09-24T13:58:41.148Z,26.25
2022-09-24T14:01:24.425Z,25.30
2022-09-24T14:04:18.682Z,28.40
2022-09-24T14:06:53.611Z,29.80
2022-09-24T14:09:23.592Z,29.70
2022-09-24T14:11:53.794Z,27.75
2022-09-24T14:14:24.509Z,28.23
2022-09-24T14:16:55.715Z,35.10
2022-09-24T14:19:23.702Z,34.78
2022-09-24T14:21:55.168Z,38.65
2022-09-24T14:24:54.078Z,31.95
2022-09-24T14:27:23.531Z,34.55
2022-09-24T14:30:04.144Z,30.17
2022-09-24T14:32:42.456Z,28.20
2022-09-24T14:35:25.494Z,25.88
2022-09-24T14:38:14.009Z,25.38
2022-09-24T14:40:57.816Z,25.42
2022-09-24T14:43:45.360Z,25.80
2022-09-24T14:46:23.369Z,25.88
2022-09-24T14:48:52.286Z,25.75
2022-09-24T14:51:30.766Z,27.13
2022-09-24T14:54:00.203Z,23.83
2022-09-24T14:56:31.749Z,21.60
2022-09-24T14:59:02.093Z,22.67
2022-09-24T15:01:33.706Z,22.73
2022-09-24T15:04:05.578Z,20.73
2022-09-24T15:06:35.586Z,21.57
2022-09-24T15:09:26.185Z,21.45
2022-09-24T15:11:55.518Z,22.38
2022-09-24T15:14:27.726Z,21.95
2022-09-24T15:16:55.387Z,21.70
2022-09-24T15:19:24.435Z,21.75
2022-09-24T15:21:59.135Z,24.08
2022-09-24T15:24:26.330Z,23.67
2022-09-24T15:27:21.377Z,26.65
2022-09-24T15:29:48.693Z,23.70
2022-09-24T15:32:19.006Z,26.13
2022-09-24T15:34:46.744Z,23.92
2022-09-24T15:37:20.164Z,22.98
2022-09-24T15:39:49.799Z,25.58
2022-09-24T15:42:25.378Z,22.00
2022-09-24T15:44:54.622Z,22.92
2022-09-24T15:47:23.285Z,25.92
2022-09-24T15:49:50.215Z,26.35
2022-09-24T15:52:25.254Z,28.45
2022-09-24T15:54:58.641Z,24.25
2022-09-24T15:57:27.181Z,27.92
2022-09-24T15:59:56.185Z,28.05
2022-09-24T16:02:33.468Z,28.73
2022-09-24T16:05:03.825Z,27.48
2022-09-24T16:07:31.380Z,26.02
2022-09-24T16:09:58.381Z,24.27
2022-09-24T16:12:28.368Z,27.02
2022-09-24T16:14:59.116Z,32.20
2022-09-24T16:17:28.108Z,28.95
2022-09-24T16:19:55.036Z,28.80
2022-09-24T16:22:25.379Z,28.95
2022-09-24T16:24:52.275Z,28.25
2022-09-24T16:27:20.155Z,30.08
2022-09-24T16:29:47.172Z,32.00
2022-09-24T16:32:14.387Z,32.92
2022-09-24T16:34:42.391Z,26.58
2022-09-24T16:37:10.601Z,28.80
2022-09-24T16:39:37.543Z,29.55
2022-09-24T16:42:05.960Z,31.77
2022-09-24T16:44:33.044Z,23.92
2022-09-24T16:47:00.115Z,24.05
2022-09-24T16:49:27.733Z,24.80
2022-09-24T16:51:55.914Z,21.48
2022-09-24T16:54:23.131Z,24.90
2022-09-24T16:56:52.123Z,26.80
2022-09-24T16:59:19.410Z,25.23
2022-09-24T17:01:46.289Z,28.38
2022-09-24T17:04:13.393Z,28.77
2022-09-24T17:06:44.486Z,27.00
2022-09-24T17:09:31.987Z,32.08
2022-09-24T17:12:01.503Z,28.42
2022-09-24T17:14:29.371Z,27.33
2022-09-24T17:16:56.503Z,32.08
2022-09-24T17:19:23.386Z,35.13
2022-09-24T17:21:50.422Z,31.15
2022-09-24T17:24:21.388Z,35.05
2022-09-24T17:26:50.316Z,30.10
2022-09-24T17:29:20.839Z,35.50
2022-09-24T17:31:49.420Z,34.70
2022-09-24T17:34:16.734Z,35.53
2022-09-24T17:36:43.731Z,37.90
2022-09-24T17:39:13.081Z,35.45
2022-09-24T17:41:40.074Z,29.85
2022-09-24T17:44:07.247Z,33.92
2022-09-24T17:46:36.058Z,36.88
2022-09-24T17:49:03.660Z,35.03
2022-09-24T17:51:36.414Z,32.22
2022-09-24T17:54:13.802Z,34.90
2022-09-24T17:56:42.127Z,34.65
2022-09-24T17:59:12.972Z,33.50
2022-09-24T18:01:43.002Z,35.67
2022-09-24T18:04:12.745Z,33.65
2022-09-24T18:06:41.684Z,35.33
2022-09-24T18:09:11.345Z,33.60
2022-09-24T18:11:41.455Z,33.95
2022-09-24T18:14:16.878Z,35.08
2022-09-24T18:16:45.132Z,31.25
2022-09-24T18:19:17.176Z,30.77
2022-09-24T18:21:46.228Z,28.08
2022-09-24T18:24:14.465Z,27.63
2022-09-24T18:26:41.690Z,27.67
2022-09-24T18:29:14.308Z,25.25
2022-09-24T18:34:11.176Z,27.08
2022-09-24T18:36:41.257Z,24.95
2022-09-24T18:39:13.570Z,26.58
2022-09-24T18:41:43.492Z,27.05
2022-09-24T18:44:11.512Z,26.60
2022-09-24T18:46:40.084Z,27.10
2022-09-24T18:49:08.346Z,28.75
2022-09-24T18:51:38.634Z,29.23
2022-09-24T18:54:14.019Z,26.27
2022-09-24T18:56:42.609Z,23.92
2022-09-24T18:59:16.275Z,27.75
2022-09-24T19:01:46.967Z,27.55
2022-09-24T19:04:16.183Z,25.92
2022-09-24T19:06:45.349Z,29.00
2022-09-24T19:09:18.093Z,27.73
2022-09-24T19:11:45.841Z,28.08
2022-09-24T19:14:15.058Z,28.42
2022-09-24T19:16:43.110Z,29.02
2022-09-24T19:19:11.352Z,29.58
2022-09-24T19:21:40.576Z,32.88
2022-09-24T19:24:09.924Z,33.45
2022-09-24T19:26:37.518Z,28.38
2022-09-24T19:29:06.588Z,27.42
2022-09-24T19:31:37.531Z,23.80
2022-09-24T19:34:10.717Z,23.55
2022-09-24T19:36:43.712Z,16.92
2022-09-24T19:39:13.074Z,20.15
2022-09-24T19:41:39.976Z,15.55
2022-09-24T19:44:09.086Z,26.85
2022-09-24T19:46:37.205Z,17.63
2022-09-24T19:49:05.868Z,16.13
2022-09-24T19:51:35.039Z,14.98
2022-09-24T19:54:04.476Z,19.55
2022-09-24T19:56:32.005Z,18.65
2022-09-24T19:59:04.559Z,23.38
2022-09-24T20:01:33.664Z,22.50
2022-09-24T20:04:05.393Z,19.90
2022-09-24T20:06:34.180Z,20.00
2022-09-24T20:09:10.521Z,23.02
2022-09-24T20:11:37.560Z,17.60
2022-09-24T20:14:11.388Z,22.70
2022-09-24T20:16:42.869Z,22.73
2022-09-24T20:19:12.133Z,17.38
2022-09-24T20:21:45.113Z,17.65
2022-09-24T20:24:18.778Z,19.05
2022-09-24T20:27:06.284Z,15.27
2022-09-24T20:29:34.325Z,18.63
2022-09-24T20:32:04.355Z,17.83
2022-09-24T20:34:35.862Z,14.00
2022-09-24T20:37:05.815Z,13.52
2022-09-24T20:39:33.059Z,13.95
2022-09-24T20:42:05.912Z,18.05
2022-09-24T20:44:33.940Z,13.52
2022-09-24T20:47:01.210Z,13.13
2022-09-24T20:49:29.994Z,15.45
2022-09-24T20:51:58.006Z,16.25
2022-09-24T20:54:28.690Z,13.63
2022-09-24T20:56:56.193Z,15.93
2022-09-24T20:59:25.741Z,16.40
2022-09-24T21:01:54.633Z,18.08
2022-09-24T21:04:35.039Z,19.85
2022-09-24T21:07:02.302Z,14.13
2022-09-24T21:09:30.173Z,16.92
2022-09-24T21:11:58.975Z,17.83
2022-09-24T21:14:27.821Z,14.27
2022-09-24T21:16:56.439Z,18.40
2022-09-24T21:19:26.103Z,15.57
2022-09-24T21:21:54.222Z,21.40
2022-09-24T21:24:31.145Z,15.95
2022-09-24T21:26:59.421Z,17.63
2022-09-24T21:29:30.556Z,15.82
2022-09-24T21:31:59.815Z,13.90
2022-09-24T21:34:28.038Z,25.17
2022-09-24T21:36:56.068Z,19.20
2022-09-24T21:39:28.975Z,17.50
2022-09-24T21:41:59.216Z,13.70
2022-09-24T21:44:31.884Z,19.73
2022-09-24T21:49:28.286Z,14.13
2022-09-24T21:51:57.579Z,15.73
2022-09-24T21:54:24.617Z,12.98
2022-09-24T21:56:54.282Z,16.17
2022-09-24T21:59:40.279Z,19.27
2022-09-24T22:02:08.590Z,16.63
2022-09-24T22:04:36.100Z,18.40
2022-09-24T22:07:03.247Z,18.83
2022-09-24T22:09:32.165Z,24.58
2022-09-24T22:12:00.878Z,24.75
2022-09-24T22:14:27.958Z,26.83
2022-09-24T22:16:56.231Z,21.65
2022-09-24T22:19:24.118Z,25.38
2022-09-24T22:21:52.344Z,29.55
2022-09-24T22:24:19.702Z,20.92
2022-09-24T22:26:46.717Z,20.67
2022-09-24T22:29:13.701Z,22.25
2022-09-24T22:31:41.690Z,29.10
2022-09-24T22:34:29.034Z,14.30
2022-09-24T22:36:57.455Z,17.58
2022-09-24T22:39:25.396Z,20.90
2022-09-24T22:41:52.662Z,20.83
2022-09-24T22:44:19.570Z,27.27
2022-09-24T22:46:46.522Z,19.67
2022-09-24T22:49:16.030Z,19.23
2022-09-24T22:51:42.872Z,20.67
2022-09-24T22:54:10.413Z,15.95
2022-09-24T22:56:37.914Z,17.77
2022-09-24T22:59:05.179Z,16.42
2022-09-24T23:01:34.997Z,14.18
2022-09-24T23:04:08.065Z,17.15
2022-09-24T23:06:36.963Z,18.20
2022-09-24T23:09:05.145Z,17.58
2022-09-24T23:11:34.634Z,14.85
2022-09-24T23:14:06.476Z,15.48
2022-09-24T23:16:36.171Z,13.13
2022-09-24T23:19:12.407Z,13.70
2022-09-24T23:21:42.804Z,17.75
2022-09-24T23:24:17.568Z,15.90
2022-09-24T23:26:45.527Z,13.55
2022-09-24T23:29:13.535Z,15.55
2022-09-24T23:31:40.634Z,17.58
2022-09-24T23:34:08.657Z,13.05
2022-09-24T23:36:36.230Z,13.07
2022-09-24T23:39:07.770Z,16.50
2022-09-24T23:41:34.821Z,13.48
2022-09-24T23:44:04.163Z,18.42
2022-09-24T23:46:33.790Z,14.63
2022-09-24T23:49:01.068Z,11.55
2022-09-24T23:51:30.012Z,11.57
2022-09-24T23:53:57.085Z,10.75
2022-09-24T23:56:24.256Z,17.30
2022-09-24T23:58:51.130Z,12.85
